KC5KAW Weather Reports


Display with metric or nautical units.
time (UTC)temp
F
wind
direction
speed
MPH
gust
MPH
rain 1hr
in
rain 24hr
in
rain mn
in
humidity
%
barometer
mb
20240623184615 89 355 1.0 8.0 0.00 0.00 0.00 73 1013.5
20240623184335 89 147 0.0 8.0 0.00 0.00 0.00 73 1013.5
20240623183617 88 61 1.0 5.0 0.00 0.00 0.00 72 1013.7
20240623183115 89 146 1.0 6.0 0.00 0.00 0.00 72 1013.7
20240623182616 89 136 2.0 6.0 0.00 0.00 0.00 71 1013.6
20240623182340 91 199 4.0 6.0 0.00 0.00 0.00 68 1013.7
20240623182059 91 67 2.0 4.0 0.00 0.00 0.00 65 1013.9
20240623181116 91 148 3.0 6.0 0.00 0.00 0.00 67 1013.7
20240623180837 91 62 4.0 6.0 0.00 0.00 0.00 67 1013.7
20240623180116 89 72 4.0 8.0 0.00 0.00 0.00 69 1014.0
20240623175615 89 319 1.0 8.0 0.00 0.00 0.00 71 1013.9
20240623175557 89 29 2.0 7.0 0.00 0.00 0.00 72 1013.7
20240623174615 89 224 3.0 6.0 0.00 0.00 0.00 70 1013.9
20240623174116 89 93 0.0 6.0 0.00 0.00 0.00 70 1014.0
20240623173615 90 214 2.0 6.0 0.00 0.00 0.00 69 1014.0
20240623173115 90 67 3.0 5.0 0.00 0.00 0.00 68 1014.0
20240623172615 90 212 3.0 7.0 0.00 0.00 0.00 68 1014.1
20240623172115 89 132 3.0 8.0 0.00 0.00 0.00 70 1014.1
20240623171629 90 141 3.0 8.0 0.00 0.00 0.00 68 1014.0
20240623171116 89 1 2.0 5.0 0.00 0.00 0.00 68 1014.1
20240623170616 89 122 0.0 6.0 0.00 0.00 0.00 71 1014.2
20240623170115 90 100 0.0 7.0 0.00 0.00 0.00 68 1014.3
20240623165839 90 234 1.0 7.0 0.00 0.00 0.00 68 1014.5
20240623165115 88 59 6.0 6.0 0.00 0.00 0.00 70 1014.3
20240623164615 90 122 2.0 5.0 0.00 0.00 0.00 68 1014.4
20240623164604 89 107 0.0 6.0 0.00 0.00 0.00 69 1014.2
20240623163616 89 70 2.0 8.0 0.00 0.00 0.00 71 1014.4
20240623163117 91 69 2.0 8.0 0.00 0.00 0.00 68 1014.3
20240623162616 89 0 1.0 5.0 0.00 0.00 0.00 68 1014.4
20240623162116 89 310 2.0 6.0 0.00 0.00 0.00 70 1014.2
20240623161616 89 60 4.0 6.0 0.00 0.00 0.00 71 1014.2
20240623161115 89 86 2.0 6.0 0.00 0.00 0.00 70 1014.2
20240623160616 89 199 2.0 6.0 0.00 0.00 0.00 70 1014.3
20240623160116 89 56 3.0 6.0 0.00 0.00 0.00 71 1014.2
20240623155615 88 148 2.0 6.0 0.00 0.00 0.00 70 1014.4
20240623155335 86 185 0.0 3.0 0.00 0.00 0.00 72 1014.4
20240623154616 89 235 0.0 3.0 0.00 0.00 0.00 72 1014.2
20240623154116 88 44 0.0 4.0 0.00 0.00 0.00 72 1014.3
20240623153615 89 103 2.0 5.0 0.00 0.00 0.00 71 1014.4
20240623153116 89 56 2.0 5.0 0.00 0.00 0.00 71 1014.4
20240623152615 88 40 0.0 5.0 0.00 0.00 0.00 71 1014.5
20240623152557 88 64 2.0 5.0 0.00 0.00 0.00 71 1014.5
20240623151615 87 63 4.0 5.0 0.00 0.00 0.00 71 1014.4
20240623151116 87 84 2.0 5.0 0.00 0.00 0.00 72 1014.6
20240623150618 86 50 2.0 6.0 0.00 0.00 0.00 73 1014.8
20240623150342 86 67 3.0 6.0 0.00 0.00 0.00 75 1014.6
20240623145835 85 350 1.0 6.0 0.00 0.00 0.00 77 1014.5
20240623145116 86 26 2.0 6.0 0.00 0.00 0.00 78 1014.7
20240623144616 86 76 3.0 6.0 0.00 0.00 0.00 78 1014.6
20240623144334 87 67 2.0 4.0 0.00 0.00 0.00 76 1014.8
20240623143615 86 26 0.0 3.0 0.00 0.00 0.00 77 1014.7
20240623143115 84 23 2.0 4.0 0.00 0.00 0.00 78 1014.7
20240623142615 84 81 4.0 4.0 0.00 0.00 0.00 79 1014.8
20240623142116 82 32 0.0 6.0 0.00 0.00 0.00 82 1014.8
20240623141843 84 46 2.0 6.0 0.00 0.00 0.00 82 1014.8
20240623141116 85 14 2.0 4.0 0.00 0.00 0.00 81 1014.8
20240623140617 86 58 2.0 3.0 0.00 0.00 0.00 79 1014.7
20240623140351 84 32 2.0 4.0 0.00 0.00 0.00 80 1014.8
20240623135615 83 346 2.0 4.0 0.00 0.00 0.00 81 1014.6
20240623135345 84 31 0.0 3.0 0.00 0.00 0.00 81 1014.6
20240623134615 84 315 0.0 3.0 0.00 0.00 0.00 81 1014.9
20240623134335 84 14 0.0 2.0 0.00 0.00 0.00 80 1014.6
20240623133615 83 53 2.0 2.0 0.00 0.00 0.00 82 1014.4
20240623133115 83 61 2.0 3.0 0.00 0.00 0.00 83 1014.5
20240623132616 83 28 2.0 3.0 0.00 0.00 0.00 84 1014.4
20240623132115 82 47 0.0 3.0 0.00 0.00 0.00 87 1014.6
20240623131615 82 22 0.0 4.0 0.00 0.00 0.00 87 1014.5
20240623131115 81 354 1.0 4.0 0.00 0.00 0.00 87 1014.4
20240623130616 81 68 2.0 3.0 0.00 0.00 0.00 88 1014.5
20240623130116 81 77 2.0 2.0 0.00 0.00 0.00 89 1014.3
20240623125842 80 36 2.0 2.0 0.00 0.00 0.00 90 1014.4
20240623125115 80 15 1.0 2.0 0.00 0.00 0.00 90 1014.6
20240623124616 79 25 0.0 2.0 0.00 0.00 0.00 91 1014.2
20240623124115 79 33 0.0 3.0 0.00 0.00 0.00 91 1014.2
20240623123616 79 70 1.0 3.0 0.00 0.00 0.00 91 1014.0
20240623123335 78 33 0.0 2.0 0.00 0.00 0.00 92 1014.5
20240623122615 78 44 0.0 1.0 0.00 0.00 0.00 92 1014.1
20240623122115 78 38 0.0 2.0 0.00 0.00 0.00 92 1014.0
20240623121615 78 42 2.0 2.0 0.00 0.00 0.00 93 1014.0
20240623121115 78 43 1.0 2.0 0.00 0.00 0.00 93 1013.9
20240623120616 77 42 0.0 2.0 0.00 0.00 0.00 93 1013.9
20240623120116 77 31 0.0 2.0 0.00 0.00 0.00 93 1013.8
20240623115616 77 73 1.0 2.0 0.00 0.00 0.00 94 1013.8
20240623115116 76 50 0.0 2.0 0.00 0.00 0.00 95 1013.9
20240623114617 76 64 0.0 2.0 0.00 0.00 0.00 95 1013.8
20240623114118 76 135 0.0 2.0 0.00 0.00 0.00 95 1013.9
20240623113343 76 23 0.0 1.0 0.00 0.00 0.00 95 1013.8
20240623112619 76 69 0.0 1.0 0.00 0.00 0.00 95 1013.7
20240623112104 76 34 0.0 1.0 0.00 0.00 0.00 95 1013.7
20240623112053 76 44 1.0 1.0 0.00 0.00 0.00 95 1013.6
20240623111103 76 62 0.0 1.0 0.00 0.00 0.00 95 1013.8
20240623110604 76 44 0.0 2.0 0.00 0.00 0.00 94 1013.9
20240623110105 76 62 0.0 2.0 0.00 0.00 0.00 94 1013.8
20240623105603 76 47 0.0 1.0 0.00 0.00 0.00 95 1013.6
20240623105544 76 60 0.0 1.0 0.00 0.00 0.00 95 1013.6
20240623104603 75 164 0.0 0.0 0.00 0.00 0.00 95 1013.8
20240623104105 75 164 0.0 1.0 0.00 0.00 0.00 95 1013.6
20240623103604 75 343 0.0 1.0 0.00 0.00 0.00 95 1013.6
20240623103104 75 37 0.0 1.0 0.00 0.00 0.00 95 1013.5
20240623102604 75 29 0.0 1.0 0.00 0.00 0.00 95 1013.6
20240623102059 75 25 0.0 1.0 0.00 0.00 0.00 95 1013.2
20240623101052 76 51 1.0 1.0 0.00 0.00 0.00 95 1013.5
20240623100552 75 358 0.0 2.0 0.00 0.00 0.00 95 1013.4
20240623100057 75 50 0.0 2.0 0.00 0.00 0.00 95 1013.5
20240623095820 75 38 0.0 1.0 0.00 0.00 0.00 95 1013.2
20240623095051 75 51 1.0 1.0 0.00 0.00 0.00 95 1013.3
20240623094552 75 44 0.0 0.0 0.00 0.00 0.00 95 1013.3
20240623094052 75 44 0.0 0.0 0.00 0.00 0.00 94 1013.6
20240623093552 75 44 0.0 1.0 0.00 0.00 0.00 94 1013.3
20240623093051 75 315 0.0 1.0 0.00 0.00 0.00 94 1013.5
20240623092551 75 50 0.0 0.0 0.00 0.00 0.00 94 1013.4
20240623092053 75 44 0.0 0.0 0.00 0.00 0.00 94 1013.6
20240623091552 75 315 0.0 0.0 0.00 0.00 0.00 94 1013.6
20240623091310 75 343 0.0 0.0 0.00 0.00 0.00 94 1013.5
20240623090552 75 309 0.0 0.0 0.00 0.00 0.00 94 1013.7
20240623090052 75 309 0.0 0.0 0.00 0.00 0.00 94 1013.5
20240623085807 76 15 0.0 1.0 0.00 0.00 0.00 94 1013.7
20240623085649 75 315 0.0 1.0 0.00 0.00 0.00 94 1013.5
20240623084546 75 44 0.0 1.0 0.00 0.00 0.00 94 1013.6
20240623084040 75 7 0.0 1.0 0.00 0.00 0.00 94 1013.5
20240623083540 75 44 0.0 1.0 0.00 0.00 0.00 93 1013.5
20240623083039 75 55 0.0 1.0 0.00 0.00 0.00 93 1013.5
20240623082808 76 44 0.0 1.0 0.00 0.00 0.00 93 1013.6
20240623082307 76 44 0.0 0.0 0.00 0.00 0.00 93 1013.6
20240623081539 76 44 0.0 0.0 0.00 0.00 0.00 93 1013.6
20240623081040 76 37 0.0 1.0 0.00 0.00 0.00 92 1013.7
20240623080540 76 37 0.0 1.0 0.00 0.00 0.00 91 1013.8
20240623080052 76 30 0.0 2.0 0.00 0.00 0.00 91 1013.5
20240623075539 76 0 0.0 2.0 0.00 0.00 0.00 91 1013.8
20240623075040 76 351 1.0 1.0 0.00 0.00 0.00 92 1014.0
20240623074758 76 60 0.0 1.0 0.00 0.00 0.00 92 1013.9
20240623074307 76 40 0.0 1.0 0.00 0.00 0.00 92 1013.7
20240623073540 76 37 0.0 1.0 0.00 0.00 0.00 91 1013.6
20240623073039 77 22 0.0 2.0 0.00 0.00 0.00 91 1013.9
20240623072552 77 22 0.0 2.0 0.00 0.00 0.00 90 1014.0
20240623072040 77 43 1.0 2.0 0.00 0.00 0.00 91 1014.0
20240623071803 76 38 0.0 2.0 0.00 0.00 0.00 91 1014.0
20240623071034 76 50 0.0 2.0 0.00 0.00 0.00 91 1014.0
20240623070527 76 52 0.0 1.0 0.00 0.00 0.00 91 1014.1
20240623070041 77 44 0.0 1.0 0.00 0.00 0.00 89 1014.0
20240623065528 77 44 0.0 2.0 0.00 0.00 0.00 89 1014.3
20240623065028 77 41 1.0 2.0 0.00 0.00 0.00 89 1014.3
20240623064527 77 73 0.0 2.0 0.00 0.00 0.00 89 1014.4
20240623064027 77 40 0.0 1.0 0.00 0.00 0.00 89 1014.6
20240623063529 78 55 0.0 2.0 0.00 0.00 0.00 88 1014.7
20240623063251 78 25 0.0 2.0 0.00 0.00 0.00 88 1014.6
20240623062528 78 26 1.0 2.0 0.00 0.00 0.00 87 1014.6
20240623062028 78 63 1.0 2.0 0.00 0.00 0.00 87 1014.7
20240623061528 78 33 0.0 4.0 0.00 0.00 0.00 87 1015.0
20240623061028 78 75 0.0 4.0 0.00 0.00 0.00 87 1014.8
20240623060540 78 33 1.0 2.0 0.00 0.00 0.00 87 1014.8
20240623060040 78 85 1.0 2.0 0.00 0.00 0.00 87 1014.8
20240623055527 78 142 0.0 2.0 0.00 0.00 0.00 86 1015.1
20240623055252 78 80 1.0 2.0 0.00 0.00 0.00 86 1014.8
20240623054533 79 73 1.0 2.0 0.00 0.00 0.00 86 1015.1
20240623054524 78 89 0.0 2.0 0.00 0.00 0.00 86 1015.0
20240623053528 79 135 0.0 2.0 0.00 0.00 0.00 85 1014.9
20240623053028 79 117 0.0 2.0 0.00 0.00 0.00 85 1014.6
20240623052528 79 76 0.0 2.0 0.00 0.00 0.00 85 1015.1
20240623052027 79 141 0.0 2.0 0.00 0.00 0.00 85 1015.0
20240623051528 79 50 0.0 2.0 0.00 0.00 0.00 85 1014.9
20240623051254 79 56 1.0 2.0 0.00 0.00 0.00 85 1015.0
20240623050528 79 60 0.0 2.0 0.00 0.00 0.00 84 1015.3
20240623050040 79 135 0.0 2.0 0.00 0.00 0.00 84 1015.1
20240623045527 79 137 0.0 2.0 0.00 0.00 0.00 83 1015.4
20240623045250 80 13 0.0 2.0 0.00 0.00 0.00 83 1015.2
20240623044528 80 100 0.0 2.0 0.00 0.00 0.00 82 1015.3
20240623044029 80 122 2.0 3.0 0.00 0.00 0.00 82 1015.1
20240623043527 80 119 0.0 4.0 0.00 0.00 0.00 82 1015.4
20240623043028 80 224 0.0 4.0 0.00 0.00 0.00 82 1015.4
20240623042527 80 158 0.0 2.0 0.00 0.00 0.00 82 1015.2
20240623042029 80 106 0.0 3.0 0.00 0.00 0.00 82 1015.4
20240623041528 80 118 0.0 4.0 0.00 0.00 0.00 81 1015.3
20240623041253 80 261 0.0 4.0 0.00 0.00 0.00 81 1015.3
20240623040528 80 65 1.0 2.0 0.00 0.00 0.00 81 1015.2
20240623040041 80 114 2.0 4.0 0.00 0.00 0.00 80 1015.0
20240623035527 80 141 2.0 4.0 0.00 0.00 0.00 80 1015.2
20240623035027 80 96 1.0 3.0 0.00 0.00 0.00 80 1015.0
20240623034528 80 169 0.0 3.0 0.00 0.00 0.00 80 1015.3
20240623034027 80 111 1.0 3.0 0.00 0.00 0.00 79 1015.2
20240623033527 81 294 0.0 3.0 0.00 0.00 0.00 79 1015.3
20240623033028 81 83 1.0 3.0 0.00 0.00 0.00 79 1015.1
20240623032528 81 121 1.0 3.0 0.00 0.00 0.00 78 1015.0
20240623032027 81 98 0.0 4.0 0.00 0.00 0.00 78 1015.0
20240623031528 81 120 1.0 4.0 0.00 0.00 0.00 78 1015.0
20240623031245 81 114 2.0 4.0 0.00 0.00 0.00 77 1014.9
20240623030528 81 148 0.0 4.0 0.00 0.00 0.00 77 1014.7
20240623030040 81 54 2.0 4.0 0.00 0.00 0.00 77 1014.6
20240623025528 81 98 1.0 4.0 0.00 0.00 0.00 76 1014.8
20240623025254 82 113 3.0 4.0 0.00 0.00 0.00 76 1014.7
20240623024528 82 158 0.0 3.0 0.00 0.00 0.00 76 1014.7
20240623024254 82 134 1.0 4.0 0.00 0.00 0.00 76 1014.8
20240623023528 82 103 1.0 4.0 0.00 0.00 0.00 76 1014.7
20240623023029 82 139 2.0 4.0 0.00 0.00 0.00 75 1014.5
20240623022528 82 164 0.0 4.0 0.00 0.00 0.00 75 1014.5
20240623022253 82 83 2.0 4.0 0.00 0.00 0.00 74 1014.7
20240623021753 82 143 1.0 4.0 0.00 0.00 0.00 74 1014.3
20240623021028 83 105 2.0 4.0 0.00 0.00 0.00 74 1014.5
20240623020527 83 147 3.0 4.0 0.00 0.00 0.00 74 1014.5
20240623020303 83 87 2.0 4.0 0.00 0.00 0.00 73 1014.4
20240623015529 83 96 1.0 4.0 0.00 0.00 0.00 74 1014.2
20240623015027 83 158 2.0 6.0 0.00 0.00 0.00 73 1014.3
20240623014528 83 126 2.0 6.0 0.00 0.00 0.00 73 1014.1
20240623014028 84 124 0.0 4.0 0.00 0.00 0.00 73 1014.1
20240623013752 84 143 1.0 5.0 0.00 0.00 0.00 72 1014.1
20240623013028 84 112 2.0 5.0 0.00 0.00 0.00 71 1014.0
20240623012755 85 175 2.0 4.0 0.00 0.00 0.00 70 1014.0
20240623012028 85 125 0.0 4.0 0.00 0.00 0.00 69 1013.7
20240623011748 85 107 2.0 6.0 0.00 0.00 0.00 68 1013.7
20240623011518 86 122 2.0 6.0 0.00 0.00 0.00 67 1013.9
20240623010528 86 212 1.0 9.0 0.00 0.00 0.00 66 1013.7
20240623010040 86 46 2.0 9.0 0.00 0.00 0.00 65 1013.7
20240623005527 86 24 3.0 6.0 0.00 0.00 0.00 65 1014.0
20240623005028 87 45 2.0 6.0 0.00 0.00 0.00 64 1013.5
20240623004528 87 235 0.0 6.0 0.00 0.00 0.00 63 1013.9
20240623004028 87 206 2.0 6.0 0.00 0.00 0.00 62 1013.6
20240623003527 88 69 5.0 6.0 0.00 0.00 0.00 62 1013.4
20240623003027 88 150 4.0 7.0 0.00 0.00 0.00 61 1013.6
20240623002527 88 152 6.0 9.0 0.00 0.00 0.00 59 1013.8
20240623002028 88 70 1.0 9.0 0.00 0.00 0.00 59 1013.3
20240623001752 89 96 3.0 5.0 0.00 0.00 0.00 58 1013.5
20240623001028 89 111 2.0 5.0 0.00 0.00 0.00 57 1013.6
20240623000528 89 101 2.0 7.0 0.00 0.00 0.00 56 1013.5
20240623000040 90 102 2.0 7.0 0.00 0.00 0.00 55 1013.4
20240622235540 90 61 3.0 8.0 0.00 0.00 0.00 55 1013.5
20240622235027 90 107 2.0 8.0 0.00 0.00 0.00 56 1013.8
20240622234527 90 151 4.0 7.0 0.00 0.00 0.00 54 1013.6
20240622234028 91 236 2.0 8.0 0.00 0.00 0.00 55 1013.5
20240622233747 90 39 0.0 9.0 0.00 0.00 0.00 55 1013.5
20240622233028 91 41 4.0 7.0 0.00 0.00 0.00 53 1013.4
20240622232527 91 180 2.0 7.0 0.00 0.00 0.00 54 1013.7
20240622232028 91 196 1.0 7.0 0.00 0.00 0.00 54 1013.7
20240622231540 91 102 3.0 9.0 0.00 0.00 0.00 53 1013.8
20240622231040 91 81 3.0 9.0 0.00 0.00 0.00 53 1013.6
20240622230527 91 69 2.0 9.0 0.00 0.00 0.00 53 1013.7
20240622230041 91 79 4.0 8.0 0.00 0.00 0.00 53 1013.7
20240622225528 91 83 2.0 9.0 0.00 0.00 0.00 53 1013.6
20240622225028 91 26 1.0 9.0 0.00 0.00 0.00 53 1013.5
20240622224745 91 52 2.0 10.0 0.00 0.00 0.00 52 1013.5
20240622224028 91 79 4.0 10.0 0.00 0.00 0.00 53 1013.5
20240622223527 91 36 3.0 10.0 0.00 0.00 0.00 53 1013.6
20240622223257 92 5 1.0 10.0 0.00 0.00 0.00 53 1013.7
20240622222527 92 72 3.0 5.0 0.00 0.00 0.00 52 1013.5
20240622222028 91 92 1.0 9.0 0.00 0.00 0.00 54 1013.7
20240622221527 91 24 2.0 10.0 0.00 0.00 0.00 54 1013.8
20240622221033 91 269 1.0 10.0 0.00 0.00 0.00 53 1013.7
20240622220528 92 146 2.0 8.0 0.00 0.00 0.00 53 1013.7
20240622220040 91 80 2.0 7.0 0.00 0.00 0.00 54 1013.8
20240622215756 91 93 5.0 7.0 0.00 0.00 0.00 54 1014.1
20240622215028 92 103 3.0 6.0 0.00 0.00 0.00 54 1013.8
20240622214527 92 41 2.0 6.0 0.00 0.00 0.00 54 1013.8
20240622214028 92 37 4.0 6.0 0.00 0.00 0.00 52 1014.1
20240622213527 92 63 4.0 7.0 0.00 0.00 0.00 52 1014.2
20240622213027 92 65 2.0 8.0 0.00 0.00 0.00 54 1014.1
20240622212527 92 76 5.0 9.0 0.00 0.00 0.00 54 1014.2
20240622212028 92 142 1.0 9.0 0.00 0.00 0.00 53 1014.2
20240622211527 92 124 4.0 9.0 0.00 0.00 0.00 54 1014.4
20240622211028 92 130 0.0 10.0 0.00 0.00 0.00 53 1014.3
20240622210527 92 123 3.0 10.0 0.00 0.00 0.00 54 1014.3
20240622210040 92 47 2.0 7.0 0.00 0.00 0.00 54 1014.4
20240622205528 92 89 1.0 8.0 0.00 0.00 0.00 53 1014.2
20240622205028 91 33 4.0 10.0 0.00 0.00 0.00 53 1014.3
20240622204527 91 39 2.0 10.0 0.00 0.00 0.00 54 1014.5
20240622204028 92 64 2.0 11.0 0.00 0.00 0.00 53 1014.4
20240622203528 92 34 3.0 11.0 0.00 0.00 0.00 54 1014.4
20240622203028 92 35 2.0 10.0 0.00 0.00 0.00 56 1014.6
20240622202529 92 155 1.0 9.0 0.00 0.00 0.00 55 1014.7
20240622202028 92 16 2.0 9.0 0.00 0.00 0.00 54 1014.6
20240622201528 93 126 3.0 9.0 0.00 0.00 0.00 53 1014.6
20240622201028 92 355 1.0 9.0 0.00 0.00 0.00 56 1014.8
20240622200528 92 72 6.0 9.0 0.00 0.00 0.00 55 1014.8
20240622200040 91 18 1.0 8.0 0.00 0.00 0.00 55 1014.6
20240622195753 91 114 2.0 11.0 0.00 0.00 0.00 57 1014.9
20240622195028 92 80 3.0 11.0 0.00 0.00 0.00 57 1015.0
20240622194528 92 53 4.0 6.0 0.00 0.00 0.00 56 1015.0
20240622194029 93 13 2.0 6.0 0.00 0.00 0.00 58 1015.2
20240622194018 92 37 1.0 6.0 0.00 0.00 0.00 56 1015.2
20240622193028 92 238 2.0 6.0 0.00 0.00 0.00 58 1015.2
20240622192528 92 108 0.0 7.0 0.00 0.00 0.00 55 1015.4
20240622192028 92 82 6.0 7.0 0.00 0.00 0.00 55 1015.3
20240622191527 92 58 2.0 6.0 0.00 0.00 0.00 55 1015.2
20240622191516 93 120 2.0 6.0 0.00 0.00 0.00 55 1015.4
20240622190528 91 161 0.0 7.0 0.00 0.00 0.00 55 1015.5
20240622190304 93 138 1.0 8.0 0.00 0.00 0.00 53 1015.8
20240622185527 92 259 1.0 8.0 0.00 0.00 0.00 55 1015.7